createdAt,value
2022-08-27T00:01:44.524Z,100.00
2022-08-27T00:04:12.329Z,100.00
2022-08-27T00:06:40.105Z,100.00
2022-08-27T00:09:09.171Z,100.00
2022-08-27T00:11:36.939Z,100.00
2022-08-27T00:14:05.163Z,100.00
2022-08-27T00:16:33.831Z,100.00
2022-08-27T00:19:01.658Z,100.00
2022-08-27T00:21:29.332Z,100.00
2022-08-27T00:23:57.445Z,100.00
2022-08-27T00:26:25.696Z,100.00
2022-08-27T00:28:53.599Z,100.00
2022-08-27T00:31:23.639Z,100.00
2022-08-27T00:33:55.441Z,100.00
2022-08-27T00:36:23.581Z,100.00
2022-08-27T00:38:53.895Z,100.00
2022-08-27T00:41:22.452Z,100.00
2022-08-27T00:44:02.496Z,100.00
2022-08-27T00:46:50.828Z,100.00
2022-08-27T00:49:26.983Z,100.00
2022-08-27T00:51:59.305Z,100.00
2022-08-27T00:54:29.091Z,100.00
2022-08-27T00:56:59.541Z,100.00
2022-08-27T00:59:32.082Z,100.00
2022-08-27T01:02:20.128Z,100.00
2022-08-27T01:04:52.375Z,100.00
2022-08-27T01:07:20.636Z,100.00
2022-08-27T01:09:49.791Z,100.00
2022-08-27T01:12:18.204Z,100.00
2022-08-27T01:14:47.628Z,100.00
2022-08-27T01:17:16.999Z,100.00
2022-08-27T01:19:53.453Z,100.00
2022-08-27T01:22:54.690Z,100.00
2022-08-27T01:25:24.703Z,100.00
2022-08-27T01:27:53.964Z,100.00
2022-08-27T01:30:22.787Z,100.00
2022-08-27T01:32:51.303Z,100.00
2022-08-27T01:35:20.179Z,100.00
2022-08-27T01:37:52.455Z,100.00
2022-08-27T01:40:21.278Z,100.00
2022-08-27T01:42:52.134Z,100.00
2022-08-27T01:45:27.665Z,100.00
2022-08-27T01:47:55.470Z,100.00
2022-08-27T01:50:26.891Z,100.00
2022-08-27T01:52:56.028Z,100.00
2022-08-27T01:55:26.855Z,100.00
2022-08-27T01:57:56.222Z,100.00
2022-08-27T02:00:28.692Z,100.00
2022-08-27T02:02:58.324Z,100.00
2022-08-27T02:05:27.375Z,100.00
2022-08-27T02:07:55.667Z,100.00
2022-08-27T02:10:27.065Z,100.00
2022-08-27T02:12:54.879Z,100.00
2022-08-27T02:15:25.316Z,100.00
2022-08-27T02:17:53.674Z,100.00
2022-08-27T02:20:23.149Z,100.00
2022-08-27T02:22:53.655Z,100.00
2022-08-27T02:25:22.794Z,100.00
2022-08-27T02:27:51.141Z,100.00
2022-08-27T02:30:23.202Z,100.00
2022-08-27T02:32:54.065Z,100.00
2022-08-27T02:35:25.310Z,100.00
2022-08-27T02:37:53.211Z,100.00
2022-08-27T02:40:23.907Z,100.00
2022-08-27T02:42:52.218Z,100.00
2022-08-27T02:45:21.851Z,100.00
2022-08-27T02:47:49.684Z,100.00
2022-08-27T02:50:18.077Z,100.00
2022-08-27T02:52:46.615Z,100.00
2022-08-27T02:55:17.234Z,100.00
2022-08-27T02:57:45.472Z,100.00
2022-08-27T03:00:18.078Z,100.00
2022-08-27T03:02:46.239Z,100.00
2022-08-27T03:05:15.551Z,100.00
2022-08-27T03:07:43.851Z,100.00
2022-08-27T03:10:14.887Z,100.00
2022-08-27T03:12:42.870Z,100.00
2022-08-27T03:15:13.638Z,100.00
2022-08-27T03:18:00.295Z,100.00
2022-08-27T03:20:28.727Z,100.00
2022-08-27T03:22:57.361Z,100.00
2022-08-27T03:25:25.219Z,100.00
2022-08-27T03:27:53.440Z,100.00
2022-08-27T03:30:23.702Z,100.00
2022-08-27T03:32:52.101Z,100.00
2022-08-27T03:35:21.082Z,100.00
2022-08-27T03:37:49.564Z,100.00
2022-08-27T03:40:17.929Z,100.00
2022-08-27T03:42:45.648Z,100.00
2022-08-27T03:45:13.931Z,100.00
2022-08-27T03:47:41.771Z,100.00
2022-08-27T03:50:10.265Z,100.00
2022-08-27T03:52:38.725Z,100.00
2022-08-27T03:55:08.736Z,100.00
2022-08-27T03:57:36.846Z,100.00
2022-08-27T04:00:07.822Z,100.00
2022-08-27T04:02:35.515Z,100.00
2022-08-27T04:05:03.235Z,100.00
2022-08-27T04:07:30.963Z,100.00
2022-08-27T04:09:59.372Z,100.00
2022-08-27T04:12:28.039Z,100.00
2022-08-27T04:14:55.723Z,100.00
2022-08-27T04:17:23.420Z,100.00
2022-08-27T04:19:53.874Z,100.00
2022-08-27T04:22:22.100Z,100.00
2022-08-27T04:24:49.876Z,100.00
2022-08-27T04:27:18.141Z,100.00
2022-08-27T04:29:45.948Z,100.00
2022-08-27T04:32:15.698Z,100.00
2022-08-27T04:34:43.802Z,100.00
2022-08-27T04:37:11.586Z,100.00
2022-08-27T04:39:39.459Z,100.00
2022-08-27T04:42:07.403Z,100.00
2022-08-27T04:44:35.216Z,100.00
2022-08-27T04:47:05.225Z,100.00
2022-08-27T04:49:34.906Z,100.00
2022-08-27T04:52:03.499Z,100.00
2022-08-27T04:54:33.276Z,100.00
2022-08-27T04:57:02.348Z,100.00
2022-08-27T04:59:31.087Z,100.00
2022-08-27T05:01:59.094Z,100.00
2022-08-27T05:04:27.088Z,100.00
2022-08-27T05:06:54.970Z,100.00
2022-08-27T05:09:24.643Z,100.00
2022-08-27T05:11:56.519Z,100.00
2022-08-27T05:14:25.438Z,100.00
2022-08-27T05:16:53.094Z,100.00
2022-08-27T05:19:20.791Z,100.00
2022-08-27T05:21:50.642Z,100.00
2022-08-27T05:24:19.736Z,100.00
2022-08-27T05:26:48.031Z,100.00
2022-08-27T05:29:16.361Z,100.00
2022-08-27T05:31:44.649Z,100.00
2022-08-27T05:34:16.565Z,100.00
2022-08-27T05:36:49.992Z,100.00
2022-08-27T05:39:18.490Z,100.00
2022-08-27T05:41:46.481Z,100.00
2022-08-27T05:44:39.585Z,100.00
2022-08-27T05:47:02.033Z,100.00
2022-08-27T05:49:29.877Z,100.00
2022-08-27T05:51:57.595Z,100.00
2022-08-27T05:54:25.360Z,100.00
2022-08-27T05:56:53.023Z,100.00
2022-08-27T05:59:39.305Z,100.00
2022-08-27T06:02:07.896Z,100.00
2022-08-27T06:04:36.115Z,100.00
2022-08-27T06:07:04.659Z,100.00
2022-08-27T06:09:32.382Z,100.00
2022-08-27T06:12:01.360Z,100.00
2022-08-27T06:14:29.798Z,100.00
2022-08-27T06:16:58.084Z,100.00
2022-08-27T06:19:25.747Z,100.00
2022-08-27T06:22:00.255Z,100.00
2022-08-27T06:24:37.933Z,100.00
2022-08-27T06:27:05.825Z,100.00
2022-08-27T06:29:36.158Z,100.00
2022-08-27T06:32:04.697Z,100.00
2022-08-27T06:34:32.954Z,100.00
2022-08-27T06:37:00.729Z,100.00
2022-08-27T06:39:28.527Z,100.00
2022-08-27T06:41:59.601Z,100.00
2022-08-27T06:44:27.412Z,100.00
2022-08-27T06:46:55.164Z,100.00
2022-08-27T06:49:22.887Z,100.00
2022-08-27T06:51:50.627Z,100.00
2022-08-27T06:54:19.514Z,100.00
2022-08-27T06:56:47.920Z,100.00
2022-08-27T06:59:17.624Z,100.00
2022-08-27T07:01:50.364Z,100.00
2022-08-27T07:04:32.344Z,100.00
2022-08-27T07:07:00.296Z,100.00
2022-08-27T07:09:28.182Z,100.00
2022-08-27T07:11:56.122Z,100.00
2022-08-27T07:14:23.903Z,100.00
2022-08-27T07:16:52.981Z,100.00
2022-08-27T07:19:21.008Z,100.00
2022-08-27T07:21:49.747Z,100.00
2022-08-27T07:24:17.511Z,100.00
2022-08-27T07:26:45.431Z,100.00
2022-08-27T07:29:16.084Z,100.00
2022-08-27T07:31:44.756Z,100.00
2022-08-27T07:34:12.624Z,100.00
2022-08-27T07:36:40.678Z,100.00
2022-08-27T07:39:09.104Z,100.00
2022-08-27T07:42:00.015Z,100.00
2022-08-27T07:44:34.406Z,100.00
2022-08-27T07:47:03.464Z,100.00
2022-08-27T07:49:33.186Z,100.00
2022-08-27T07:52:01.022Z,100.00
2022-08-27T07:54:28.834Z,100.00
2022-08-27T07:56:56.870Z,100.00
2022-08-27T07:59:26.399Z,100.00
2022-08-27T08:01:55.839Z,100.00
2022-08-27T08:04:24.572Z,100.00
2022-08-27T08:06:53.165Z,100.00
2022-08-27T08:09:23.234Z,100.00
2022-08-27T08:11:52.708Z,100.00
2022-08-27T08:14:21.169Z,100.00
2022-08-27T08:16:49.057Z,100.00
2022-08-27T08:19:17.065Z,100.00
2022-08-27T08:21:44.739Z,100.00
2022-08-27T08:24:12.487Z,100.00
2022-08-27T08:26:42.765Z,100.00
2022-08-27T08:29:16.079Z,100.00
2022-08-27T08:31:49.859Z,100.00
2022-08-27T08:34:18.349Z,100.00
2022-08-27T08:36:51.047Z,100.00
2022-08-27T08:39:22.920Z,100.00
2022-08-27T08:41:55.166Z,100.00
2022-08-27T08:44:25.508Z,100.00
2022-08-27T08:47:02.270Z,100.00
2022-08-27T08:50:01.706Z,100.00
2022-08-27T08:52:35.445Z,100.00
2022-08-27T08:55:15.869Z,100.00
2022-08-27T08:57:53.035Z,100.00
2022-08-27T09:00:20.754Z,100.00
2022-08-27T09:02:55.772Z,100.00
2022-08-27T09:05:27.822Z,100.00
2022-08-27T09:08:37.763Z,100.00
2022-08-27T09:11:27.125Z,100.00
2022-08-27T09:14:02.544Z,100.00
2022-08-27T09:16:30.927Z,100.00
2022-08-27T09:18:58.725Z,100.00
2022-08-27T09:21:37.189Z,100.00
2022-08-27T09:24:16.421Z,100.00
2022-08-27T09:26:45.306Z,100.00
2022-08-27T09:29:22.531Z,100.00
2022-08-27T09:32:05.150Z,100.00
2022-08-27T09:34:39.385Z,100.00
2022-08-27T09:37:18.136Z,100.00
2022-08-27T09:39:51.432Z,100.00
2022-08-27T09:42:31.325Z,100.00
2022-08-27T09:44:59.475Z,100.00
2022-08-27T09:47:28.327Z,100.00
2022-08-27T09:50:09.446Z,100.00
2022-08-27T09:52:52.376Z,100.00
2022-08-27T09:55:44.490Z,100.00
2022-08-27T09:58:25.044Z,100.00
2022-08-27T10:01:07.580Z,100.00
2022-08-27T10:03:35.430Z,100.00
2022-08-27T10:06:03.284Z,100.00
2022-08-27T10:08:40.250Z,100.00
2022-08-27T10:11:30.361Z,100.00
2022-08-27T10:14:07.231Z,100.00
2022-08-27T10:16:34.871Z,100.00
2022-08-27T10:19:02.526Z,100.00
2022-08-27T10:21:30.147Z,100.00
2022-08-27T10:23:57.771Z,100.00
2022-08-27T10:26:39.731Z,100.00
2022-08-27T10:29:16.393Z,100.00
2022-08-27T10:32:21.639Z,100.00
2022-08-27T10:35:27.931Z,100.00
2022-08-27T10:38:17.927Z,100.00
2022-08-27T10:41:04.102Z,100.00
2022-08-27T10:44:00.259Z,100.00
2022-08-27T10:47:06.027Z,100.00
2022-08-27T10:50:09.420Z,100.00
2022-08-27T10:53:07.533Z,100.00
2022-08-27T10:55:42.565Z,100.00
2022-08-27T10:58:22.509Z,100.00
2022-08-27T11:00:59.536Z,100.00
2022-08-27T11:03:50.136Z,100.00
2022-08-27T11:06:32.250Z,100.00
2022-08-27T11:09:07.865Z,100.00
2022-08-27T11:12:12.757Z,100.00
2022-08-27T11:14:50.264Z,100.00
2022-08-27T11:17:32.875Z,100.00
2022-08-27T11:20:11.742Z,100.00
2022-08-27T11:22:54.673Z,100.00
2022-08-27T11:25:51.995Z,100.00
2022-08-27T11:28:46.414Z,100.00
2022-08-27T11:31:22.322Z,100.00
2022-08-27T11:34:02.344Z,100.00
2022-08-27T11:36:30.022Z,100.00
2022-08-27T11:39:26.786Z,100.00
2022-08-27T11:42:09.636Z,100.00
2022-08-27T11:44:45.777Z,100.00
2022-08-27T11:47:25.965Z,100.00
2022-08-27T11:50:00.527Z,100.00
2022-08-27T11:52:37.086Z,100.00
2022-08-27T11:55:23.204Z,100.00
2022-08-27T11:58:05.380Z,100.00
2022-08-27T12:00:39.701Z,100.00
2022-08-27T12:03:22.847Z,100.00
2022-08-27T12:06:10.592Z,95.83
2022-08-27T12:08:39.264Z,88.69
2022-08-27T12:11:32.993Z,94.71
2022-08-27T12:14:18.959Z,93.26
2022-08-27T12:16:55.426Z,90.23
2022-08-27T12:19:50.233Z,86.38
2022-08-27T12:23:12.365Z,90.00
2022-08-27T12:25:40.203Z,92.02
2022-08-27T12:28:10.457Z,88.69
2022-08-27T12:30:42.556Z,91.72
2022-08-27T12:33:22.753Z,88.30
2022-08-27T12:35:55.580Z,86.06
2022-08-27T12:38:37.668Z,87.46
2022-08-27T12:41:10.098Z,85.06
2022-08-27T12:43:42.314Z,87.40
2022-08-27T12:46:17.061Z,84.44
2022-08-27T12:48:49.527Z,84.96
2022-08-27T12:51:27.864Z,86.91
2022-08-27T12:54:07.510Z,81.43
2022-08-27T12:56:56.195Z,83.73
2022-08-27T12:59:59.507Z,84.53
2022-08-27T13:02:45.418Z,82.56
2022-08-27T13:05:14.163Z,84.30
2022-08-27T13:07:47.354Z,85.94
2022-08-27T13:10:18.981Z,85.08
2022-08-27T13:12:48.541Z,85.34
2022-08-27T13:15:18.217Z,85.39
2022-08-27T13:17:48.058Z,84.74
2022-08-27T13:20:23.895Z,85.33
2022-08-27T13:22:53.622Z,84.00
2022-08-27T13:25:26.599Z,83.87
2022-08-27T13:28:04.178Z,83.65
2022-08-27T13:30:35.928Z,83.18
2022-08-27T13:33:07.217Z,83.34
2022-08-27T13:35:35.817Z,82.20
2022-08-27T13:38:05.532Z,82.87
2022-08-27T13:40:36.182Z,82.33
2022-08-27T13:43:10.832Z,82.28
2022-08-27T13:45:43.355Z,81.99
2022-08-27T13:48:13.878Z,81.61
2022-08-27T13:50:50.848Z,82.08
2022-08-27T13:53:44.018Z,81.32
2022-08-27T13:56:12.212Z,81.64
2022-08-27T13:58:39.905Z,81.22
2022-08-27T14:01:26.644Z,80.63
2022-08-27T14:04:07.954Z,79.88
2022-08-27T14:06:43.139Z,79.17
2022-08-27T14:09:18.449Z,80.26
2022-08-27T14:11:48.291Z,79.37
2022-08-27T14:14:19.122Z,79.25
2022-08-27T14:16:58.040Z,79.23
2022-08-27T14:19:33.362Z,78.17
2022-08-27T14:22:05.337Z,79.73
2022-08-27T14:24:33.005Z,80.00
2022-08-27T14:27:09.397Z,79.23
2022-08-27T14:29:37.279Z,79.63
2022-08-27T14:32:05.329Z,80.12
2022-08-27T14:34:33.067Z,79.83
2022-08-27T14:37:01.666Z,78.65
2022-08-27T14:39:29.600Z,78.05
2022-08-27T14:41:57.342Z,77.53
2022-08-27T14:44:25.208Z,76.82
2022-08-27T14:46:54.206Z,76.79
2022-08-27T14:49:31.564Z,76.60
2022-08-27T14:51:59.664Z,75.76
2022-08-27T14:54:33.215Z,75.99
2022-08-27T14:57:03.880Z,76.23
2022-08-27T14:59:32.935Z,76.15
2022-08-27T15:02:02.887Z,76.77
2022-08-27T15:04:31.142Z,76.99
2022-08-27T15:07:01.135Z,77.29
2022-08-27T15:09:29.538Z,77.84
2022-08-27T15:11:58.437Z,78.09
2022-08-27T15:14:33.076Z,77.83
2022-08-27T15:17:01.535Z,77.87
2022-08-27T15:19:38.972Z,78.46
2022-08-27T15:22:33.068Z,78.12
2022-08-27T15:25:02.187Z,76.48
2022-08-27T15:27:38.622Z,78.01
2022-08-27T15:30:12.310Z,77.63
2022-08-27T15:32:47.225Z,79.21
2022-08-27T15:35:22.743Z,80.54
2022-08-27T15:37:50.645Z,81.49
2022-08-27T15:40:20.374Z,82.26
2022-08-27T15:42:54.442Z,82.58
2022-08-27T15:45:22.285Z,83.41
2022-08-27T15:47:53.653Z,84.00
2022-08-27T15:50:21.368Z,84.15
2022-08-27T15:52:50.509Z,84.65
2022-08-27T15:55:24.987Z,85.01
2022-08-27T15:57:52.925Z,85.20
2022-08-27T16:00:21.296Z,85.64
2022-08-27T16:02:49.600Z,85.53
2022-08-27T16:05:18.525Z,86.04
2022-08-27T16:07:46.349Z,86.28
2022-08-27T16:10:14.590Z,86.87
2022-08-27T16:12:42.561Z,87.30
2022-08-27T16:15:11.141Z,87.43
2022-08-27T16:17:39.408Z,87.23
2022-08-27T16:20:08.814Z,87.27
2022-08-27T16:22:36.764Z,88.13
2022-08-27T16:25:06.121Z,88.90
2022-08-27T16:27:34.462Z,89.49
2022-08-27T16:30:02.586Z,89.68
2022-08-27T16:32:33.267Z,90.24
2022-08-27T16:35:01.630Z,90.18
2022-08-27T16:37:29.409Z,90.52
2022-08-27T16:39:57.243Z,90.23
2022-08-27T16:42:25.212Z,89.99
2022-08-27T16:44:52.936Z,89.59
2022-08-27T16:47:20.658Z,89.87
2022-08-27T16:50:06.926Z,90.04
2022-08-27T16:52:37.043Z,90.36
2022-08-27T16:55:05.546Z,90.94
2022-08-27T16:57:33.231Z,91.46
2022-08-27T17:00:01.033Z,91.59
2022-08-27T17:02:32.442Z,91.83
2022-08-27T17:05:23.860Z,92.19
2022-08-27T17:07:50.144Z,92.45
2022-08-27T17:10:19.681Z,93.04
2022-08-27T17:12:48.817Z,93.48
2022-08-27T17:15:18.399Z,93.87
2022-08-27T17:17:46.548Z,93.75
2022-08-27T17:20:16.086Z,94.10
2022-08-27T17:22:44.653Z,94.25
2022-08-27T17:25:12.534Z,94.48
2022-08-27T17:27:40.204Z,94.23
2022-08-27T17:30:09.866Z,94.22
2022-08-27T17:32:40.874Z,94.07
2022-08-27T17:35:09.621Z,94.25
2022-08-27T17:37:38.657Z,94.29
2022-08-27T17:40:06.971Z,94.30
2022-08-27T17:42:34.766Z,94.30
2022-08-27T17:45:02.648Z,94.25
2022-08-27T17:47:31.001Z,94.55
2022-08-27T17:49:59.610Z,94.46
2022-08-27T17:52:27.362Z,94.38
2022-08-27T17:54:57.744Z,94.47
2022-08-27T17:57:41.009Z,94.90
2022-08-27T18:00:10.918Z,95.46
2022-08-27T18:02:41.255Z,95.09
2022-08-27T18:05:11.503Z,95.69
2022-08-27T18:07:40.184Z,95.75
2022-08-27T18:10:09.786Z,95.96
2022-08-27T18:12:38.253Z,96.18
2022-08-27T18:15:11.227Z,96.42
2022-08-27T18:17:43.358Z,96.70
2022-08-27T18:20:14.797Z,96.83
2022-08-27T18:22:48.446Z,97.29
2022-08-27T18:25:17.943Z,97.68
2022-08-27T18:27:49.972Z,97.89
2022-08-27T18:30:17.706Z,98.10
2022-08-27T18:32:45.595Z,98.49
2022-08-27T18:35:29.176Z,98.73
2022-08-27T18:37:56.896Z,99.16
2022-08-27T18:40:29.657Z,99.33
2022-08-27T18:42:58.547Z,99.65
2022-08-27T18:45:28.781Z,100.00
2022-08-27T18:48:00.747Z,100.00
2022-08-27T18:50:28.862Z,100.00
2022-08-27T18:52:57.990Z,100.00
2022-08-27T18:55:29.226Z,100.00
2022-08-27T18:57:57.151Z,100.00
2022-08-27T19:00:26.348Z,100.00
2022-08-27T19:02:54.730Z,100.00
2022-08-27T19:05:26.890Z,100.00
2022-08-27T19:07:56.549Z,100.00
2022-08-27T19:10:24.764Z,100.00
2022-08-27T19:12:52.535Z,100.00
2022-08-27T19:15:20.917Z,100.00
2022-08-27T19:17:54.257Z,100.00
2022-08-27T19:20:22.128Z,100.00
2022-08-27T19:22:50.375Z,100.00
2022-08-27T19:25:19.032Z,100.00
2022-08-27T19:27:48.196Z,100.00
2022-08-27T19:30:17.596Z,100.00
2022-08-27T19:32:45.634Z,100.00
2022-08-27T19:35:13.558Z,100.00
2022-08-27T19:37:52.733Z,100.00
2022-08-27T19:40:22.906Z,100.00
2022-08-27T19:42:51.562Z,100.00
2022-08-27T19:45:23.690Z,100.00
2022-08-27T19:47:53.683Z,100.00
2022-08-27T19:50:22.988Z,100.00
2022-08-27T19:52:51.715Z,100.00
2022-08-27T19:55:19.935Z,100.00
2022-08-27T19:57:48.024Z,100.00
2022-08-27T20:00:20.152Z,100.00
2022-08-27T20:02:47.956Z,100.00
2022-08-27T20:05:20.526Z,100.00
2022-08-27T20:07:50.523Z,100.00
2022-08-27T20:10:21.639Z,100.00
2022-08-27T20:12:51.219Z,100.00
2022-08-27T20:15:23.550Z,100.00
2022-08-27T20:17:53.723Z,100.00
2022-08-27T20:20:24.807Z,100.00
2022-08-27T20:22:53.791Z,100.00
2022-08-27T20:25:21.596Z,100.00
2022-08-27T20:27:49.327Z,100.00
2022-08-27T20:30:18.373Z,100.00
2022-08-27T20:32:47.838Z,100.00
2022-08-27T20:35:16.562Z,100.00
2022-08-27T20:37:44.665Z,100.00
2022-08-27T20:40:18.994Z,100.00
2022-08-27T20:42:46.735Z,100.00
2022-08-27T20:45:15.702Z,100.00
2022-08-27T20:47:45.587Z,100.00
2022-08-27T20:50:14.622Z,100.00
2022-08-27T20:52:42.702Z,100.00
2022-08-27T20:55:11.160Z,100.00
2022-08-27T20:57:39.272Z,100.00
2022-08-27T21:00:23.094Z,100.00
2022-08-27T21:02:50.813Z,100.00
2022-08-27T21:05:19.839Z,100.00
2022-08-27T21:07:49.815Z,100.00
2022-08-27T21:10:19.104Z,100.00
2022-08-27T21:12:46.893Z,100.00
2022-08-27T21:15:15.478Z,100.00
2022-08-27T21:17:43.215Z,100.00
2022-08-27T21:20:12.695Z,100.00
2022-08-27T21:22:42.939Z,100.00
2022-08-27T21:25:12.326Z,100.00
2022-08-27T21:27:41.145Z,100.00
2022-08-27T21:30:09.702Z,100.00
2022-08-27T21:32:37.592Z,100.00
2022-08-27T21:35:05.633Z,100.00
2022-08-27T21:37:33.419Z,100.00
2022-08-27T21:40:01.319Z,100.00
2022-08-27T21:42:29.083Z,100.00
2022-08-27T21:44:56.795Z,100.00
2022-08-27T21:47:24.622Z,100.00
2022-08-27T21:49:52.399Z,100.00
2022-08-27T21:52:20.169Z,100.00
2022-08-27T21:54:47.933Z,100.00
2022-08-27T21:57:16.858Z,100.00
2022-08-27T21:59:47.989Z,100.00
2022-08-27T22:02:39.348Z,100.00
2022-08-27T22:05:04.540Z,100.00
2022-08-27T22:07:32.270Z,100.00
2022-08-27T22:10:00.016Z,100.00
2022-08-27T22:12:27.690Z,100.00
2022-08-27T22:14:55.503Z,100.00
2022-08-27T22:17:23.364Z,100.00
2022-08-27T22:19:51.104Z,100.00
2022-08-27T22:22:18.892Z,100.00
2022-08-27T22:24:47.155Z,100.00
2022-08-27T22:27:14.832Z,100.00
2022-08-27T22:29:42.661Z,100.00
2022-08-27T22:32:10.361Z,100.00
2022-08-27T22:34:38.176Z,100.00
2022-08-27T22:37:05.966Z,100.00
2022-08-27T22:39:33.848Z,100.00
2022-08-27T22:42:01.587Z,100.00
2022-08-27T22:44:30.469Z,100.00
2022-08-27T22:46:59.030Z,100.00
2022-08-27T22:49:27.936Z,100.00
2022-08-27T22:51:55.625Z,100.00
2022-08-27T22:54:23.366Z,100.00
2022-08-27T22:56:51.070Z,100.00
2022-08-27T22:59:18.806Z,100.00
2022-08-27T23:01:46.501Z,100.00
2022-08-27T23:04:14.610Z,100.00
2022-08-27T23:06:42.868Z,100.00
2022-08-27T23:09:10.747Z,100.00
2022-08-27T23:11:38.431Z,100.00
2022-08-27T23:14:06.127Z,100.00
2022-08-27T23:16:33.966Z,100.00
2022-08-27T23:19:01.651Z,100.00
2022-08-27T23:21:29.566Z,100.00
2022-08-27T23:23:57.423Z,100.00
2022-08-27T23:26:43.794Z,100.00
2022-08-27T23:29:12.336Z,100.00
2022-08-27T23:31:40.267Z,100.00
2022-08-27T23:34:08.073Z,100.00
2022-08-27T23:36:36.091Z,100.00
2022-08-27T23:39:04.146Z,100.00
2022-08-27T23:41:31.847Z,100.00
2022-08-27T23:43:59.593Z,100.00
2022-08-27T23:46:27.564Z,100.00
2022-08-27T23:48:56.050Z,100.00
2022-08-27T23:51:23.953Z,100.00
2022-08-27T23:53:51.647Z,100.00
2022-08-27T23:56:19.296Z,100.00
2022-08-27T23:58:47.030Z,100.00
